createdAt,value
2023-03-26T00:00:26.673Z,64.27
2023-03-26T00:05:29.569Z,64.26
2023-03-26T00:10:33.230Z,65.05
2023-03-26T00:15:37.983Z,64.88
2023-03-26T00:20:41.496Z,64.95
2023-03-26T00:25:46.079Z,64.62
2023-03-26T00:30:57.341Z,64.54
2023-03-26T00:36:03.887Z,64.39
2023-03-26T00:41:17.930Z,64.10
2023-03-26T00:46:21.149Z,63.64
2023-03-26T00:51:24.306Z,63.52
2023-03-26T00:56:27.388Z,63.65
2023-03-26T01:01:32.541Z,63.91
2023-03-26T01:06:37.840Z,63.88
2023-03-26T01:11:40.914Z,63.74
2023-03-26T01:16:52.652Z,63.88
2023-03-26T01:21:56.346Z,63.79
2023-03-26T01:27:12.161Z,64.46
2023-03-26T01:32:59.016Z,65.22
2023-03-26T01:38:23.337Z,66.04
2023-03-26T01:43:39.179Z,66.33
2023-03-26T01:48:47.280Z,66.76
2023-03-26T01:53:50.639Z,66.89
2023-03-26T01:59:29.484Z,66.78
2023-03-26T02:04:57.917Z,67.62
2023-03-26T02:10:29.583Z,68.43
2023-03-26T02:15:33.563Z,68.56
2023-03-26T02:20:37.779Z,68.61
2023-03-26T02:25:42.789Z,68.06
2023-03-26T02:30:46.036Z,68.09
2023-03-26T02:35:49.325Z,67.99
2023-03-26T02:40:54.519Z,68.10
2023-03-26T02:45:58.412Z,68.00
2023-03-26T02:51:03.051Z,68.18
2023-03-26T02:56:06.954Z,68.35
2023-03-26T03:01:09.995Z,68.26
2023-03-26T03:06:13.473Z,68.45
2023-03-26T03:11:24.633Z,68.59
2023-03-26T03:16:28.678Z,69.12
2023-03-26T03:21:31.784Z,69.83
2023-03-26T03:26:36.592Z,69.79
2023-03-26T03:31:41.334Z,70.16
2023-03-26T03:36:48.757Z,70.11
2023-03-26T03:41:51.733Z,70.26
2023-03-26T03:46:56.098Z,70.65
2023-03-26T03:51:59.091Z,70.09
2023-03-26T03:57:02.302Z,70.46
2023-03-26T04:02:05.402Z,70.60
2023-03-26T04:07:08.406Z,70.73
2023-03-26T04:12:11.515Z,70.92
2023-03-26T04:17:15.490Z,70.90
2023-03-26T04:22:19.480Z,70.83
2023-03-26T04:27:28.239Z,70.46
2023-03-26T04:32:34.324Z,69.97
2023-03-26T04:37:41.205Z,69.96
2023-03-26T04:42:46.944Z,70.17
2023-03-26T04:47:50.953Z,70.00
2023-03-26T04:52:59.537Z,70.01
2023-03-26T04:58:05.602Z,69.56
2023-03-26T05:03:12.415Z,69.31
2023-03-26T05:08:15.688Z,68.60
2023-03-26T05:13:18.671Z,68.26
2023-03-26T05:18:21.678Z,67.43
2023-03-26T05:23:24.718Z,66.69
2023-03-26T05:28:28.356Z,65.64
2023-03-26T05:33:31.437Z,64.39
2023-03-26T05:38:34.429Z,63.52
2023-03-26T05:43:37.439Z,63.23
2023-03-26T05:48:40.967Z,62.50
2023-03-26T05:53:44.129Z,62.19
2023-03-26T05:58:47.623Z,62.07
2023-03-26T06:03:51.628Z,61.68
2023-03-26T06:09:01.474Z,60.11
2023-03-26T06:14:05.894Z,59.55
2023-03-26T06:19:08.944Z,59.16
2023-03-26T06:24:12.474Z,59.35
2023-03-26T06:29:16.129Z,58.24
2023-03-26T06:34:19.076Z,57.19
2023-03-26T06:39:22.297Z,56.26
2023-03-26T06:44:25.499Z,55.68
2023-03-26T06:49:28.565Z,55.12
2023-03-26T06:54:31.522Z,54.91
2023-03-26T06:59:34.558Z,54.55
2023-03-26T07:04:38.084Z,54.00
2023-03-26T07:09:41.475Z,53.27
2023-03-26T07:14:44.431Z,52.26
2023-03-26T07:19:47.386Z,51.75
2023-03-26T07:24:51.105Z,50.96
2023-03-26T07:30:07.003Z,49.90
2023-03-26T07:35:41.091Z,49.22
2023-03-26T07:41:05.224Z,49.28
2023-03-26T07:46:12.891Z,48.78
2023-03-26T07:51:18.763Z,46.42
2023-03-26T07:56:39.946Z,45.77
2023-03-26T08:01:48.960Z,46.18
2023-03-26T08:07:22.974Z,44.33
2023-03-26T08:12:41.150Z,44.01
2023-03-26T08:17:59.939Z,44.72
2023-03-26T08:23:27.803Z,46.43
2023-03-26T08:28:48.720Z,47.37
2023-03-26T08:33:51.851Z,48.02
2023-03-26T08:38:54.948Z,47.68
2023-03-26T08:45:12.417Z,47.32
2023-03-26T08:50:38.192Z,47.61
2023-03-26T08:56:05.688Z,46.51
2023-03-26T09:01:56.071Z,46.38
2023-03-26T09:07:35.853Z,44.53
2023-03-26T09:13:25.708Z,45.06
2023-03-26T09:18:50.825Z,44.21
2023-03-26T09:24:10.927Z,43.85
2023-03-26T09:29:53.631Z,44.14
2023-03-26T09:35:13.244Z,44.88
2023-03-26T09:41:04.201Z,45.48
2023-03-26T09:46:38.014Z,45.57
2023-03-26T09:51:59.044Z,45.60
2023-03-26T09:57:29.242Z,45.65
2023-03-26T10:03:27.023Z,44.17
2023-03-26T10:08:56.598Z,42.85
2023-03-26T10:14:53.442Z,41.63
2023-03-26T10:20:37.844Z,40.14
2023-03-26T10:26:36.654Z,37.41
2023-03-26T10:32:24.803Z,37.43
2023-03-26T10:38:01.640Z,38.08
2023-03-26T10:44:05.187Z,35.26
2023-03-26T10:49:23.557Z,33.63
2023-03-26T10:54:56.328Z,34.39
2023-03-26T11:00:26.227Z,35.75
2023-03-26T11:05:47.438Z,37.06
2023-03-26T11:11:29.982Z,37.73
2023-03-26T11:16:59.088Z,37.93
2023-03-26T11:22:46.628Z,39.09
2023-03-26T11:28:32.752Z,37.76
2023-03-26T11:33:45.605Z,35.03
2023-03-26T11:38:53.178Z,34.93
2023-03-26T11:44:07.222Z,34.37
2023-03-26T11:49:16.850Z,32.74
2023-03-26T11:54:21.180Z,33.81
2023-03-26T11:59:45.289Z,34.68
2023-03-26T12:05:03.030Z,35.28
2023-03-26T12:10:21.569Z,36.59
2023-03-26T12:15:26.181Z,35.39
2023-03-26T12:20:36.708Z,31.92
2023-03-26T12:25:40.146Z,32.17
2023-03-26T12:31:02.491Z,30.58
2023-03-26T12:36:26.437Z,32.10
2023-03-26T12:44:44.554Z,32.15
2023-03-26T12:47:59.338Z,32.03
2023-03-26T12:53:15.390Z,32.22
2023-03-26T12:58:25.672Z,33.88
2023-03-26T13:03:42.186Z,34.65
2023-03-26T13:09:45.717Z,35.14
2023-03-26T13:15:07.954Z,35.03
2023-03-26T13:20:15.044Z,32.83
2023-03-26T13:25:53.995Z,32.41
2023-03-26T13:31:23.208Z,27.94
2023-03-26T13:36:57.471Z,28.69
2023-03-26T13:42:21.967Z,29.34
2023-03-26T13:47:31.451Z,30.27
2023-03-26T13:52:46.811Z,30.09
2023-03-26T13:58:03.492Z,30.08
2023-03-26T14:03:48.484Z,29.53
2023-03-26T14:09:02.944Z,29.70
2023-03-26T14:14:43.515Z,30.29
2023-03-26T14:20:22.872Z,29.61
2023-03-26T14:25:46.840Z,27.99
2023-03-26T14:31:30.103Z,27.82
2023-03-26T14:36:59.162Z,29.02
2023-03-26T14:42:18.094Z,29.51
2023-03-26T14:47:25.877Z,29.44
2023-03-26T14:52:48.910Z,27.96
2023-03-26T14:58:03.946Z,27.43
2023-03-26T15:03:10.070Z,28.33
2023-03-26T15:08:53.418Z,28.83
2023-03-26T15:14:29.847Z,29.14
2023-03-26T15:20:03.482Z,30.01
2023-03-26T15:25:45.766Z,30.03
2023-03-26T15:31:21.837Z,29.39
2023-03-26T15:37:10.812Z,28.24
2023-03-26T15:42:38.131Z,28.95
2023-03-26T15:47:48.609Z,29.20
2023-03-26T15:53:39.307Z,29.48
2023-03-26T15:59:13.374Z,29.92
2023-03-26T16:04:54.238Z,30.55
2023-03-26T16:11:07.889Z,30.66
2023-03-26T16:16:25.011Z,31.04
2023-03-26T16:21:32.737Z,31.76
2023-03-26T16:26:45.558Z,32.93
2023-03-26T16:32:09.929Z,33.33
2023-03-26T16:37:32.231Z,34.10
2023-03-26T16:42:41.696Z,34.56
2023-03-26T16:48:01.637Z,35.21
2023-03-26T16:53:29.862Z,35.77
2023-03-26T16:59:10.218Z,36.85
2023-03-26T17:04:24.877Z,37.04
2023-03-26T17:10:14.828Z,37.55
2023-03-26T17:16:13.580Z,38.46
2023-03-26T17:21:46.891Z,38.54
2023-03-26T17:27:17.363Z,38.78
2023-03-26T17:32:21.617Z,39.62
2023-03-26T17:37:26.439Z,39.89
2023-03-26T17:42:32.835Z,40.48
2023-03-26T17:48:16.172Z,40.84
2023-03-26T17:53:37.890Z,41.82
2023-03-26T17:58:52.725Z,41.96
2023-03-26T18:04:00.493Z,41.93
2023-03-26T18:09:45.143Z,42.22
2023-03-26T18:14:55.457Z,42.48
2023-03-26T18:20:10.034Z,42.55
2023-03-26T18:25:27.202Z,42.83
2023-03-26T18:30:30.516Z,42.71
2023-03-26T18:35:55.701Z,42.64
2023-03-26T18:40:59.330Z,42.95
2023-03-26T18:46:04.196Z,43.15
2023-03-26T18:51:07.966Z,43.04
2023-03-26T18:56:42.307Z,43.47
2023-03-26T19:01:47.493Z,43.69
2023-03-26T19:06:55.211Z,44.05
2023-03-26T19:12:16.408Z,43.78
2023-03-26T19:17:19.524Z,43.96
2023-03-26T19:22:24.763Z,44.25
2023-03-26T19:27:28.311Z,44.27
2023-03-26T19:32:35.139Z,44.30
2023-03-26T19:37:51.396Z,45.01
2023-03-26T19:42:54.145Z,44.93
2023-03-26T19:48:13.903Z,45.07
2023-03-26T19:53:29.988Z,45.25
2023-03-26T19:58:32.993Z,45.65
2023-03-26T20:03:43.127Z,45.74
2023-03-26T20:08:51.338Z,45.97
2023-03-26T20:13:54.265Z,46.16
2023-03-26T20:18:58.416Z,46.38
2023-03-26T20:24:01.950Z,46.82
2023-03-26T20:29:06.010Z,46.67
2023-03-26T20:34:20.103Z,46.81
2023-03-26T20:39:26.418Z,46.95
2023-03-26T20:44:30.896Z,47.00
2023-03-26T20:49:33.660Z,47.34
2023-03-26T20:54:37.028Z,47.32
2023-03-26T20:59:39.980Z,47.89
2023-03-26T21:04:42.990Z,48.28
2023-03-26T21:09:48.836Z,49.37
2023-03-26T21:14:52.336Z,49.73
2023-03-26T21:20:08.099Z,54.00
2023-03-26T21:25:32.322Z,56.08
2023-03-26T21:30:35.781Z,58.77
2023-03-26T21:35:39.515Z,62.67
2023-03-26T21:40:49.683Z,63.71
2023-03-26T21:46:00.611Z,64.20
2023-03-26T21:51:05.791Z,64.63
2023-03-26T21:56:33.409Z,64.84
2023-03-26T22:01:54.710Z,64.93
2023-03-26T22:07:18.761Z,64.71
2023-03-26T22:12:22.238Z,64.56
2023-03-26T22:17:27.795Z,65.16
2023-03-26T22:22:30.948Z,65.77
2023-03-26T22:27:34.740Z,66.11
2023-03-26T22:32:48.548Z,67.16
2023-03-26T22:37:51.950Z,67.81
2023-03-26T22:43:04.060Z,69.08
2023-03-26T22:48:07.579Z,70.69
2023-03-26T22:53:10.443Z,71.50
2023-03-26T22:58:13.391Z,72.64
2023-03-26T23:03:16.421Z,74.26
2023-03-26T23:08:20.551Z,74.46
2023-03-26T23:13:25.442Z,75.26
2023-03-26T23:18:29.247Z,75.77
2023-03-26T23:23:34.811Z,76.68
2023-03-26T23:28:38.515Z,77.35
2023-03-26T23:33:46.173Z,77.54
2023-03-26T23:38:51.621Z,77.49
2023-03-26T23:43:55.875Z,77.58
2023-03-26T23:49:03.599Z,78.12
2023-03-26T23:54:07.761Z,78.31
2023-03-26T23:59:10.522Z,78.92
